Aérodrome :
LOGIN :

S'inscrire | Disclaimer

   EN    FR    IT 

 










Légende :    VFR   VFR Marginal   IFR   IFR Intensif   IFR Très Intensif
Visi : 
Plafond : 
>= 8 km
>= 3000ft
5 à 8 km
1000 à 3000 ft
1500m à 5 km
500 à 1000 ft
800 à 1500m
200 à 500 ft
< 800m
< 200 ft
Symboles :   Orages  Brouillard  Fortes neiges  Fortes précipitations  Vent > 20 kt
SIGMETs :   Divers  Orages  Givrage  Turbulence  Onde Orograph.  Cendres Volcan.







- Altitude de l'aérodrome : 220 ft
- Code IATA : CWL
- Voir les cartes d'approche


EGFF - Cardiff Rhoose

DERNIER METAR :
  • 160020Z AUTO 21011KT 9999 -RA OVC014 18/16 Q1013

METARs EXPIRÉS :
  • 152350Z AUTO 22010KT 190V250 9999 OVC015 18/16 Q1013
  • 152320Z AUTO 22010KT 9999 BKN015 OVC020 18/16 Q1013
  • 152250Z AUTO 23010KT 200V260 9999 OVC016 18/16 Q1014
  • 152220Z AUTO 23009KT 9999 SCT015 BKN019 OVC023 18/16 Q1014
  • 152150Z AUTO 23009KT 9999 OVC014 18/16 Q1014

TAF TAF EGFF
Valide du 16 à 00h jusqu'au 17 à 00h UTC


152302Z 1600/1624 22010KT 9999 SCT025
TEMPO 1600/1608 6000 RA BKN012
PROB30
TEMPO 1600/1607 29018G28KT 3500 +RA BKN006
BECMG 1606/1609 28014KT
BECMG 1622/1624 29004KT
ATIS : +44 1446 729 319
Pas de NOTAMs connus pour ce terrain.



MET'MAP, la Météo Aéronautique d'un coup d'oeil ! - Copyright ORBIFLY Décembre 2007 - Disclaimer

ORBIFLY MET'MAP TEAM :

Programmation & Développement : Alexandra Zaïnal
Conception & Développement : Baudouin d'Aumeries
Co-Programmation & Développement : Marc-Olivier Méhu
Soutien technique & logistique : Manuel Goepfert

Contact : metmap@orbifly.com




SOURCES & CREDITS :

   NOAA